sensor_id;sensor_type;location;lat;lon;timestamp;P1;durP1;ratioP1;P2;durP2;ratioP2
11328;SDS011;5719;42.714;23.732;2023-05-16T00:01:50;19.50;;;14.65;;
11328;SDS011;5719;42.714;23.732;2023-05-16T00:04:17;21.10;;;15.52;;
11328;SDS011;5719;42.714;23.732;2023-05-16T00:06:44;19.48;;;14.85;;
11328;SDS011;5719;42.714;23.732;2023-05-16T00:09:11;20.58;;;15.43;;
11328;SDS011;5719;42.714;23.732;2023-05-16T00:11:38;25.08;;;15.20;;
11328;SDS011;5719;42.714;23.732;2023-05-16T00:14:05;21.73;;;15.00;;
11328;SDS011;5719;42.714;23.732;2023-05-16T00:16:32;21.27;;;14.55;;
11328;SDS011;5719;42.714;23.732;2023-05-16T00:19:02;22.60;;;14.30;;
11328;SDS011;5719;42.714;23.732;2023-05-16T00:21:29;16.27;;;13.65;;
11328;SDS011;5719;42.714;23.732;2023-05-16T00:23:56;20.20;;;14.95;;
11328;SDS011;5719;42.714;23.732;2023-05-16T00:26:23;20.45;;;14.32;;
11328;SDS011;5719;42.714;23.732;2023-05-16T00:28:50;17.00;;;13.48;;
11328;SDS011;5719;42.714;23.732;2023-05-16T00:31:17;22.65;;;13.48;;
11328;SDS011;5719;42.714;23.732;2023-05-16T00:33:44;23.05;;;13.48;;
11328;SDS011;5719;42.714;23.732;2023-05-16T00:36:12;21.08;;;14.07;;
11328;SDS011;5719;42.714;23.732;2023-05-16T00:38:39;17.50;;;12.93;;
11328;SDS011;5719;42.714;23.732;2023-05-16T00:41:06;17.92;;;13.45;;
11328;SDS011;5719;42.714;23.732;2023-05-16T00:43:33;18.17;;;12.98;;
11328;SDS011;5719;42.714;23.732;2023-05-16T00:45:59;18.00;;;13.50;;
11328;SDS011;5719;42.714;23.732;2023-05-16T00:48:26;14.98;;;12.50;;
11328;SDS011;5719;42.714;23.732;2023-05-16T00:50:53;18.52;;;13.10;;
11328;SDS011;5719;42.714;23.732;2023-05-16T00:53:22;19.85;;;13.57;;
11328;SDS011;5719;42.714;23.732;2023-05-16T00:55:49;17.10;;;13.27;;
11328;SDS011;5719;42.714;23.732;2023-05-16T00:58:17;22.50;;;13.50;;
11328;SDS011;5719;42.714;23.732;2023-05-16T01:00:44;22.33;;;14.65;;
11328;SDS011;5719;42.714;23.732;2023-05-16T01:03:12;20.05;;;13.95;;
11328;SDS011;5719;42.714;23.732;2023-05-16T01:05:39;19.58;;;13.63;;
11328;SDS011;5719;42.714;23.732;2023-05-16T01:08:06;16.67;;;12.25;;
11328;SDS011;5719;42.714;23.732;2023-05-16T01:10:38;20.40;;;12.43;;
11328;SDS011;5719;42.714;23.732;2023-05-16T01:13:26;16.17;;;12.65;;
11328;SDS011;5719;42.714;23.732;2023-05-16T01:16:04;23.00;;;12.38;;
11328;SDS011;5719;42.714;23.732;2023-05-16T01:18:40;15.43;;;12.30;;
11328;SDS011;5719;42.714;23.732;2023-05-16T01:21:11;15.50;;;12.07;;
11328;SDS011;5719;42.714;23.732;2023-05-16T01:23:50;15.57;;;12.15;;
11328;SDS011;5719;42.714;23.732;2023-05-16T01:26:20;15.63;;;12.70;;
11328;SDS011;5719;42.714;23.732;2023-05-16T01:28:48;18.48;;;12.00;;
11328;SDS011;5719;42.714;23.732;2023-05-16T01:31:16;18.40;;;12.52;;
11328;SDS011;5719;42.714;23.732;2023-05-16T01:33:43;17.52;;;12.80;;
11328;SDS011;5719;42.714;23.732;2023-05-16T01:36:13;18.67;;;12.82;;
11328;SDS011;5719;42.714;23.732;2023-05-16T01:38:50;19.55;;;13.10;;
11328;SDS011;5719;42.714;23.732;2023-05-16T01:41:29;23.80;;;14.15;;
11328;SDS011;5719;42.714;23.732;2023-05-16T01:44:06;22.95;;;14.32;;
11328;SDS011;5719;42.714;23.732;2023-05-16T01:46:41;18.45;;;13.88;;
11328;SDS011;5719;42.714;23.732;2023-05-16T01:49:13;20.98;;;12.63;;
11328;SDS011;5719;42.714;23.732;2023-05-16T01:51:42;17.17;;;11.68;;
11328;SDS011;5719;42.714;23.732;2023-05-16T01:54:15;16.08;;;13.40;;
11328;SDS011;5719;42.714;23.732;2023-05-16T01:56:47;18.05;;;12.95;;
11328;SDS011;5719;42.714;23.732;2023-05-16T01:59:18;22.70;;;13.13;;
11328;SDS011;5719;42.714;23.732;2023-05-16T02:01:46;18.52;;;11.93;;
11328;SDS011;5719;42.714;23.732;2023-05-16T02:04:13;19.63;;;12.13;;
11328;SDS011;5719;42.714;23.732;2023-05-16T02:06:40;17.98;;;11.30;;
11328;SDS011;5719;42.714;23.732;2023-05-16T02:09:07;15.07;;;11.43;;
11328;SDS011;5719;42.714;23.732;2023-05-16T02:11:34;12.77;;;11.20;;
11328;SDS011;5719;42.714;23.732;2023-05-16T02:14:02;18.10;;;11.30;;
11328;SDS011;5719;42.714;23.732;2023-05-16T02:16:29;14.70;;;11.35;;
11328;SDS011;5719;42.714;23.732;2023-05-16T02:18:56;18.08;;;12.43;;
11328;SDS011;5719;42.714;23.732;2023-05-16T02:21:23;14.88;;;11.15;;
11328;SDS011;5719;42.714;23.732;2023-05-16T02:23:50;24.90;;;13.30;;
11328;SDS011;5719;42.714;23.732;2023-05-16T02:26:17;16.77;;;13.00;;
11328;SDS011;5719;42.714;23.732;2023-05-16T02:28:44;25.13;;;14.07;;
11328;SDS011;5719;42.714;23.732;2023-05-16T02:31:15;23.00;;;14.77;;
11328;SDS011;5719;42.714;23.732;2023-05-16T02:33:51;32.90;;;17.85;;
11328;SDS011;5719;42.714;23.732;2023-05-16T02:36:18;35.40;;;17.75;;
11328;SDS011;5719;42.714;23.732;2023-05-16T02:38:45;24.42;;;15.35;;
11328;SDS011;5719;42.714;23.732;2023-05-16T02:41:12;27.58;;;13.82;;
11328;SDS011;5719;42.714;23.732;2023-05-16T02:43:38;20.77;;;14.05;;
11328;SDS011;5719;42.714;23.732;2023-05-16T02:46:18;28.92;;;14.32;;
11328;SDS011;5719;42.714;23.732;2023-05-16T02:48:47;24.80;;;14.38;;
11328;SDS011;5719;42.714;23.732;2023-05-16T02:51:14;23.08;;;13.48;;
11328;SDS011;5719;42.714;23.732;2023-05-16T02:53:41;24.27;;;13.88;;
11328;SDS011;5719;42.714;23.732;2023-05-16T02:56:08;20.33;;;12.88;;
11328;SDS011;5719;42.714;23.732;2023-05-16T02:58:35;21.67;;;12.63;;
11328;SDS011;5719;42.714;23.732;2023-05-16T03:01:01;15.38;;;11.60;;
11328;SDS011;5719;42.714;23.732;2023-05-16T03:03:30;18.13;;;12.52;;
11328;SDS011;5719;42.714;23.732;2023-05-16T03:05:57;16.50;;;11.95;;
11328;SDS011;5719;42.714;23.732;2023-05-16T03:08:24;25.20;;;12.50;;
11328;SDS011;5719;42.714;23.732;2023-05-16T03:10:51;22.08;;;12.70;;
11328;SDS011;5719;42.714;23.732;2023-05-16T03:13:18;19.33;;;12.02;;
11328;SDS011;5719;42.714;23.732;2023-05-16T03:15:45;19.30;;;12.48;;
11328;SDS011;5719;42.714;23.732;2023-05-16T03:18:12;19.17;;;12.45;;
11328;SDS011;5719;42.714;23.732;2023-05-16T03:20:40;17.67;;;11.68;;
11328;SDS011;5719;42.714;23.732;2023-05-16T03:23:07;18.15;;;12.68;;
11328;SDS011;5719;42.714;23.732;2023-05-16T03:25:34;18.40;;;12.63;;
11328;SDS011;5719;42.714;23.732;2023-05-16T03:28:01;15.32;;;12.48;;
11328;SDS011;5719;42.714;23.732;2023-05-16T03:30:28;20.35;;;14.40;;
11328;SDS011;5719;42.714;23.732;2023-05-16T03:32:56;18.25;;;13.77;;
11328;SDS011;5719;42.714;23.732;2023-05-16T03:35:22;16.65;;;13.25;;
11328;SDS011;5719;42.714;23.732;2023-05-16T03:37:51;27.30;;;15.88;;
11328;SDS011;5719;42.714;23.732;2023-05-16T03:40:18;20.90;;;14.05;;
11328;SDS011;5719;42.714;23.732;2023-05-16T03:42:45;23.48;;;14.65;;
11328;SDS011;5719;42.714;23.732;2023-05-16T03:45:12;20.70;;;14.50;;
11328;SDS011;5719;42.714;23.732;2023-05-16T03:47:39;22.55;;;14.82;;
11328;SDS011;5719;42.714;23.732;2023-05-16T03:50:07;18.73;;;14.40;;
11328;SDS011;5719;42.714;23.732;2023-05-16T03:52:35;22.40;;;13.65;;
11328;SDS011;5719;42.714;23.732;2023-05-16T03:55:04;17.10;;;13.70;;
11328;SDS011;5719;42.714;23.732;2023-05-16T03:57:32;28.60;;;16.10;;
11328;SDS011;5719;42.714;23.732;2023-05-16T03:59:59;21.75;;;13.05;;
11328;SDS011;5719;42.714;23.732;2023-05-16T04:02:26;17.38;;;13.98;;
11328;SDS011;5719;42.714;23.732;2023-05-16T04:04:53;25.27;;;16.67;;
11328;SDS011;5719;42.714;23.732;2023-05-16T04:07:20;21.13;;;15.40;;
11328;SDS011;5719;42.714;23.732;2023-05-16T04:09:47;29.58;;;16.88;;
11328;SDS011;5719;42.714;23.732;2023-05-16T04:12:16;22.55;;;16.20;;
11328;SDS011;5719;42.714;23.732;2023-05-16T04:14:42;31.35;;;16.95;;
11328;SDS011;5719;42.714;23.732;2023-05-16T04:17:09;17.42;;;13.38;;
11328;SDS011;5719;42.714;23.732;2023-05-16T04:19:36;17.67;;;12.65;;
11328;SDS011;5719;42.714;23.732;2023-05-16T04:22:03;24.25;;;14.10;;
11328;SDS011;5719;42.714;23.732;2023-05-16T04:24:31;16.85;;;12.35;;
11328;SDS011;5719;42.714;23.732;2023-05-16T04:26:59;20.10;;;13.02;;
11328;SDS011;5719;42.714;23.732;2023-05-16T04:29:27;21.17;;;12.50;;
11328;SDS011;5719;42.714;23.732;2023-05-16T04:31:54;16.13;;;11.68;;
11328;SDS011;5719;42.714;23.732;2023-05-16T04:34:21;23.35;;;14.13;;
11328;SDS011;5719;42.714;23.732;2023-05-16T04:36:52;26.80;;;13.90;;
11328;SDS011;5719;42.714;23.732;2023-05-16T04:39:19;23.00;;;15.02;;
11328;SDS011;5719;42.714;23.732;2023-05-16T04:41:45;35.22;;;18.67;;
11328;SDS011;5719;42.714;23.732;2023-05-16T04:44:12;32.78;;;17.67;;
11328;SDS011;5719;42.714;23.732;2023-05-16T04:46:41;24.85;;;14.82;;
11328;SDS011;5719;42.714;23.732;2023-05-16T04:49:08;22.65;;;13.77;;
11328;SDS011;5719;42.714;23.732;2023-05-16T04:51:35;20.80;;;13.25;;
11328;SDS011;5719;42.714;23.732;2023-05-16T04:54:02;20.92;;;13.65;;
11328;SDS011;5719;42.714;23.732;2023-05-16T04:56:29;20.60;;;13.98;;
11328;SDS011;5719;42.714;23.732;2023-05-16T04:58:56;18.35;;;12.10;;
11328;SDS011;5719;42.714;23.732;2023-05-16T05:01:23;20.77;;;12.57;;
11328;SDS011;5719;42.714;23.732;2023-05-16T05:03:51;17.98;;;12.55;;
11328;SDS011;5719;42.714;23.732;2023-05-16T05:06:18;18.55;;;12.77;;
11328;SDS011;5719;42.714;23.732;2023-05-16T05:08:45;18.88;;;12.82;;
11328;SDS011;5719;42.714;23.732;2023-05-16T05:11:12;15.65;;;12.45;;
11328;SDS011;5719;42.714;23.732;2023-05-16T05:13:40;16.58;;;12.45;;
11328;SDS011;5719;42.714;23.732;2023-05-16T05:16:07;21.35;;;14.15;;
11328;SDS011;5719;42.714;23.732;2023-05-16T05:18:35;17.35;;;13.65;;
11328;SDS011;5719;42.714;23.732;2023-05-16T05:21:04;18.15;;;12.63;;
11328;SDS011;5719;42.714;23.732;2023-05-16T05:23:31;18.83;;;14.02;;
11328;SDS011;5719;42.714;23.732;2023-05-16T05:25:59;21.33;;;13.57;;
11328;SDS011;5719;42.714;23.732;2023-05-16T05:28:26;28.88;;;15.93;;
11328;SDS011;5719;42.714;23.732;2023-05-16T05:30:53;34.47;;;18.50;;
11328;SDS011;5719;42.714;23.732;2023-05-16T05:33:24;35.40;;;16.98;;
11328;SDS011;5719;42.714;23.732;2023-05-16T05:35:52;36.97;;;18.65;;
11328;SDS011;5719;42.714;23.732;2023-05-16T05:38:21;45.05;;;20.92;;
11328;SDS011;5719;42.714;23.732;2023-05-16T05:40:48;34.78;;;18.52;;
11328;SDS011;5719;42.714;23.732;2023-05-16T05:43:15;28.42;;;16.00;;
11328;SDS011;5719;42.714;23.732;2023-05-16T05:45:42;32.05;;;16.67;;
11328;SDS011;5719;42.714;23.732;2023-05-16T05:48:10;36.75;;;17.50;;
11328;SDS011;5719;42.714;23.732;2023-05-16T05:50:37;53.03;;;22.58;;
11328;SDS011;5719;42.714;23.732;2023-05-16T05:53:05;68.65;;;25.77;;
11328;SDS011;5719;42.714;23.732;2023-05-16T05:55:33;33.38;;;18.00;;
11328;SDS011;5719;42.714;23.732;2023-05-16T05:58:00;31.33;;;18.67;;
11328;SDS011;5719;42.714;23.732;2023-05-16T06:00:27;34.45;;;18.60;;
11328;SDS011;5719;42.714;23.732;2023-05-16T06:02:54;32.92;;;17.50;;
11328;SDS011;5719;42.714;23.732;2023-05-16T06:05:22;20.70;;;13.30;;
11328;SDS011;5719;42.714;23.732;2023-05-16T06:07:49;17.60;;;13.35;;
11328;SDS011;5719;42.714;23.732;2023-05-16T06:10:16;22.20;;;14.52;;
11328;SDS011;5719;42.714;23.732;2023-05-16T06:12:44;40.50;;;20.95;;
11328;SDS011;5719;42.714;23.732;2023-05-16T06:15:11;74.03;;;30.05;;
11328;SDS011;5719;42.714;23.732;2023-05-16T06:17:38;62.65;;;27.23;;
11328;SDS011;5719;42.714;23.732;2023-05-16T06:20:06;44.10;;;22.60;;
11328;SDS011;5719;42.714;23.732;2023-05-16T06:22:34;47.70;;;23.85;;
11328;SDS011;5719;42.714;23.732;2023-05-16T06:25:00;45.70;;;24.55;;
11328;SDS011;5719;42.714;23.732;2023-05-16T06:27:27;32.10;;;19.73;;
11328;SDS011;5719;42.714;23.732;2023-05-16T06:29:56;30.88;;;19.00;;
11328;SDS011;5719;42.714;23.732;2023-05-16T06:32:23;54.92;;;25.70;;
11328;SDS011;5719;42.714;23.732;2023-05-16T06:34:49;53.58;;;24.50;;
11328;SDS011;5719;42.714;23.732;2023-05-16T06:37:21;41.50;;;21.38;;
11328;SDS011;5719;42.714;23.732;2023-05-16T06:39:48;42.17;;;21.67;;
11328;SDS011;5719;42.714;23.732;2023-05-16T06:42:15;38.30;;;19.83;;
11328;SDS011;5719;42.714;23.732;2023-05-16T06:44:43;26.17;;;13.95;;
11328;SDS011;5719;42.714;23.732;2023-05-16T06:47:11;21.77;;;13.35;;
11328;SDS011;5719;42.714;23.732;2023-05-16T06:49:38;72.47;;;27.08;;
11328;SDS011;5719;42.714;23.732;2023-05-16T06:52:08;77.20;;;32.38;;
11328;SDS011;5719;42.714;23.732;2023-05-16T06:54:35;43.33;;;20.63;;
11328;SDS011;5719;42.714;23.732;2023-05-16T06:57:02;41.35;;;17.85;;
11328;SDS011;5719;42.714;23.732;2023-05-16T06:59:31;40.47;;;18.88;;
11328;SDS011;5719;42.714;23.732;2023-05-16T07:01:58;31.27;;;16.45;;
11328;SDS011;5719;42.714;23.732;2023-05-16T07:04:27;31.65;;;16.67;;
11328;SDS011;5719;42.714;23.732;2023-05-16T07:06:53;42.83;;;19.40;;
11328;SDS011;5719;42.714;23.732;2023-05-16T07:09:21;42.97;;;19.08;;
11328;SDS011;5719;42.714;23.732;2023-05-16T07:11:48;22.95;;;12.15;;
11328;SDS011;5719;42.714;23.732;2023-05-16T07:14:16;19.13;;;12.52;;
11328;SDS011;5719;42.714;23.732;2023-05-16T07:16:42;39.38;;;16.50;;
11328;SDS011;5719;42.714;23.732;2023-05-16T07:19:10;24.38;;;13.07;;
11328;SDS011;5719;42.714;23.732;2023-05-16T07:21:39;26.63;;;11.85;;
11328;SDS011;5719;42.714;23.732;2023-05-16T07:24:06;31.73;;;14.50;;
11328;SDS011;5719;42.714;23.732;2023-05-16T07:26:33;32.50;;;16.48;;
11328;SDS011;5719;42.714;23.732;2023-05-16T07:29:00;43.05;;;17.23;;
11328;SDS011;5719;42.714;23.732;2023-05-16T07:31:28;45.78;;;19.27;;
11328;SDS011;5719;42.714;23.732;2023-05-16T07:33:58;15.98;;;11.85;;
11328;SDS011;5719;42.714;23.732;2023-05-16T07:36:25;18.80;;;11.05;;
11328;SDS011;5719;42.714;23.732;2023-05-16T07:38:54;20.23;;;11.38;;
11328;SDS011;5719;42.714;23.732;2023-05-16T07:41:21;29.52;;;14.30;;
11328;SDS011;5719;42.714;23.732;2023-05-16T07:43:49;35.63;;;15.25;;
11328;SDS011;5719;42.714;23.732;2023-05-16T07:46:17;27.92;;;15.73;;
11328;SDS011;5719;42.714;23.732;2023-05-16T07:48:44;22.75;;;14.02;;
11328;SDS011;5719;42.714;23.732;2023-05-16T07:51:12;20.63;;;13.93;;
11328;SDS011;5719;42.714;23.732;2023-05-16T07:53:38;18.88;;;11.27;;
11328;SDS011;5719;42.714;23.732;2023-05-16T07:56:07;13.55;;;9.65;;
11328;SDS011;5719;42.714;23.732;2023-05-16T07:58:35;18.58;;;10.48;;
11328;SDS011;5719;42.714;23.732;2023-05-16T08:01:02;15.10;;;10.15;;
11328;SDS011;5719;42.714;23.732;2023-05-16T08:03:29;16.92;;;9.85;;
11328;SDS011;5719;42.714;23.732;2023-05-16T08:05:56;17.35;;;9.20;;
11328;SDS011;5719;42.714;23.732;2023-05-16T08:08:23;17.77;;;9.40;;
11328;SDS011;5719;42.714;23.732;2023-05-16T08:10:50;13.43;;;8.90;;
11328;SDS011;5719;42.714;23.732;2023-05-16T08:13:18;13.02;;;8.82;;
11328;SDS011;5719;42.714;23.732;2023-05-16T08:15:45;22.75;;;12.13;;
11328;SDS011;5719;42.714;23.732;2023-05-16T08:18:12;25.17;;;14.65;;
11328;SDS011;5719;42.714;23.732;2023-05-16T08:20:40;16.73;;;11.15;;
11328;SDS011;5719;42.714;23.732;2023-05-16T08:23:07;19.80;;;10.35;;
11328;SDS011;5719;42.714;23.732;2023-05-16T08:25:34;14.13;;;10.00;;
11328;SDS011;5719;42.714;23.732;2023-05-16T08:28:01;19.55;;;10.88;;
11328;SDS011;5719;42.714;23.732;2023-05-16T08:30:30;15.82;;;9.60;;
11328;SDS011;5719;42.714;23.732;2023-05-16T08:32:57;17.98;;;12.63;;
11328;SDS011;5719;42.714;23.732;2023-05-16T08:35:23;25.02;;;12.88;;
11328;SDS011;5719;42.714;23.732;2023-05-16T08:37:50;20.38;;;10.43;;
11328;SDS011;5719;42.714;23.732;2023-05-16T08:40:17;14.95;;;9.27;;
11328;SDS011;5719;42.714;23.732;2023-05-16T08:42:45;15.05;;;9.00;;
11328;SDS011;5719;42.714;23.732;2023-05-16T08:45:12;20.15;;;9.30;;
11328;SDS011;5719;42.714;23.732;2023-05-16T08:47:41;16.75;;;10.13;;
11328;SDS011;5719;42.714;23.732;2023-05-16T08:50:09;14.10;;;8.63;;
11328;SDS011;5719;42.714;23.732;2023-05-16T08:52:37;13.13;;;8.25;;
11328;SDS011;5719;42.714;23.732;2023-05-16T08:55:07;21.00;;;9.43;;
11328;SDS011;5719;42.714;23.732;2023-05-16T08:57:35;16.60;;;8.98;;
11328;SDS011;5719;42.714;23.732;2023-05-16T09:00:06;15.15;;;9.32;;
11328;SDS011;5719;42.714;23.732;2023-05-16T09:02:36;14.82;;;8.63;;
11328;SDS011;5719;42.714;23.732;2023-05-16T09:05:06;15.02;;;8.60;;
11328;SDS011;5719;42.714;23.732;2023-05-16T09:07:35;15.15;;;8.35;;
11328;SDS011;5719;42.714;23.732;2023-05-16T09:10:02;16.58;;;8.43;;
11328;SDS011;5719;42.714;23.732;2023-05-16T09:12:33;24.33;;;8.60;;
11328;SDS011;5719;42.714;23.732;2023-05-16T09:15:01;20.77;;;9.23;;
11328;SDS011;5719;42.714;23.732;2023-05-16T09:17:30;17.20;;;8.10;;
11328;SDS011;5719;42.714;23.732;2023-05-16T09:20:08;15.48;;;7.90;;
11328;SDS011;5719;42.714;23.732;2023-05-16T09:22:36;17.67;;;7.72;;
11328;SDS011;5719;42.714;23.732;2023-05-16T09:25:03;18.75;;;8.93;;
11328;SDS011;5719;42.714;23.732;2023-05-16T09:27:31;14.82;;;7.22;;
11328;SDS011;5719;42.714;23.732;2023-05-16T09:29:58;14.10;;;7.28;;
11328;SDS011;5719;42.714;23.732;2023-05-16T09:32:28;14.88;;;7.93;;
11328;SDS011;5719;42.714;23.732;2023-05-16T09:34:57;18.67;;;8.40;;
11328;SDS011;5719;42.714;23.732;2023-05-16T09:37:25;29.25;;;9.38;;
11328;SDS011;5719;42.714;23.732;2023-05-16T09:39:53;19.83;;;9.13;;
11328;SDS011;5719;42.714;23.732;2023-05-16T09:42:20;21.25;;;8.93;;
11328;SDS011;5719;42.714;23.732;2023-05-16T09:44:48;13.80;;;7.63;;
11328;SDS011;5719;42.714;23.732;2023-05-16T09:47:16;16.08;;;7.03;;
11328;SDS011;5719;42.714;23.732;2023-05-16T09:49:44;15.90;;;6.63;;
11328;SDS011;5719;42.714;23.732;2023-05-16T09:52:13;14.02;;;6.93;;
11328;SDS011;5719;42.714;23.732;2023-05-16T09:54:42;11.07;;;6.28;;
11328;SDS011;5719;42.714;23.732;2023-05-16T09:57:09;15.05;;;6.88;;
11328;SDS011;5719;42.714;23.732;2023-05-16T10:02:10;19.95;;;7.10;;
11328;SDS011;5719;42.714;23.732;2023-05-16T10:04:38;13.77;;;6.60;;
11328;SDS011;5719;42.714;23.732;2023-05-16T10:07:06;18.98;;;7.68;;
11328;SDS011;5719;42.714;23.732;2023-05-16T10:09:34;15.80;;;7.50;;
11328;SDS011;5719;42.714;23.732;2023-05-16T10:12:03;16.63;;;7.57;;
11328;SDS011;5719;42.714;23.732;2023-05-16T10:14:34;12.43;;;7.15;;
11328;SDS011;5719;42.714;23.732;2023-05-16T10:17:02;15.35;;;7.22;;
11328;SDS011;5719;42.714;23.732;2023-05-16T10:19:31;19.25;;;7.53;;
11328;SDS011;5719;42.714;23.732;2023-05-16T10:22:03;17.67;;;7.95;;
11328;SDS011;5719;42.714;23.732;2023-05-16T10:24:34;16.38;;;8.20;;
11328;SDS011;5719;42.714;23.732;2023-05-16T10:27:06;14.85;;;7.78;;
11328;SDS011;5719;42.714;23.732;2023-05-16T10:29:34;16.98;;;8.20;;
11328;SDS011;5719;42.714;23.732;2023-05-16T10:32:04;13.15;;;7.28;;
11328;SDS011;5719;42.714;23.732;2023-05-16T10:34:32;15.48;;;7.35;;
11328;SDS011;5719;42.714;23.732;2023-05-16T10:36:59;14.90;;;7.55;;
11328;SDS011;5719;42.714;23.732;2023-05-16T10:39:27;15.27;;;7.28;;
11328;SDS011;5719;42.714;23.732;2023-05-16T10:41:55;23.67;;;7.80;;
11328;SDS011;5719;42.714;23.732;2023-05-16T10:44:25;14.65;;;7.57;;
11328;SDS011;5719;42.714;23.732;2023-05-16T10:46:53;20.88;;;7.80;;
11328;SDS011;5719;42.714;23.732;2023-05-16T10:49:20;8.02;;;5.88;;
11328;SDS011;5719;42.714;23.732;2023-05-16T10:52:01;15.02;;;6.45;;
11328;SDS011;5719;42.714;23.732;2023-05-16T10:54:33;11.15;;;6.10;;
11328;SDS011;5719;42.714;23.732;2023-05-16T10:57:04;9.00;;;6.38;;
11328;SDS011;5719;42.714;23.732;2023-05-16T10:59:44;15.73;;;6.10;;
11328;SDS011;5719;42.714;23.732;2023-05-16T11:02:23;16.58;;;6.05;;
11328;SDS011;5719;42.714;23.732;2023-05-16T11:04:51;11.40;;;6.20;;
11328;SDS011;5719;42.714;23.732;2023-05-16T11:07:20;9.95;;;5.70;;
11328;SDS011;5719;42.714;23.732;2023-05-16T11:10:01;13.95;;;6.28;;
11328;SDS011;5719;42.714;23.732;2023-05-16T11:12:43;15.18;;;6.63;;
11328;SDS011;5719;42.714;23.732;2023-05-16T11:15:22;11.65;;;6.22;;
11328;SDS011;5719;42.714;23.732;2023-05-16T11:17:50;12.32;;;6.32;;
11328;SDS011;5719;42.714;23.732;2023-05-16T11:20:31;16.38;;;7.30;;
11328;SDS011;5719;42.714;23.732;2023-05-16T11:25:48;13.02;;;7.30;;
11328;SDS011;5719;42.714;23.732;2023-05-16T11:28:18;15.20;;;6.82;;
11328;SDS011;5719;42.714;23.732;2023-05-16T11:30:49;14.13;;;7.20;;
11328;SDS011;5719;42.714;23.732;2023-05-16T11:33:19;14.18;;;6.68;;
11328;SDS011;5719;42.714;23.732;2023-05-16T11:35:58;16.60;;;6.47;;
11328;SDS011;5719;42.714;23.732;2023-05-16T11:38:30;15.00;;;6.63;;
11328;SDS011;5719;42.714;23.732;2023-05-16T11:41:02;13.27;;;6.63;;
11328;SDS011;5719;42.714;23.732;2023-05-16T11:43:36;12.68;;;6.55;;
11328;SDS011;5719;42.714;23.732;2023-05-16T11:48:33;21.98;;;6.95;;
11328;SDS011;5719;42.714;23.732;2023-05-16T11:51:00;18.65;;;6.20;;
11328;SDS011;5719;42.714;23.732;2023-05-16T11:53:28;11.65;;;5.70;;
11328;SDS011;5719;42.714;23.732;2023-05-16T11:55:55;19.42;;;6.28;;
11328;SDS011;5719;42.714;23.732;2023-05-16T11:58:24;13.00;;;6.07;;
11328;SDS011;5719;42.714;23.732;2023-05-16T12:00:52;14.65;;;5.97;;
11328;SDS011;5719;42.714;23.732;2023-05-16T12:03:21;13.40;;;5.55;;
11328;SDS011;5719;42.714;23.732;2023-05-16T12:05:49;16.02;;;5.55;;
11328;SDS011;5719;42.714;23.732;2023-05-16T12:08:17;17.77;;;6.10;;
11328;SDS011;5719;42.714;23.732;2023-05-16T12:10:46;15.85;;;6.28;;
11328;SDS011;5719;42.714;23.732;2023-05-16T12:13:13;13.30;;;5.85;;
11328;SDS011;5719;42.714;23.732;2023-05-16T12:15:41;17.52;;;5.50;;
11328;SDS011;5719;42.714;23.732;2023-05-16T12:18:08;11.25;;;6.07;;
11328;SDS011;5719;42.714;23.732;2023-05-16T12:20:37;22.45;;;6.18;;
11328;SDS011;5719;42.714;23.732;2023-05-16T12:23:06;13.98;;;5.95;;
11328;SDS011;5719;42.714;23.732;2023-05-16T12:25:36;18.00;;;6.55;;
11328;SDS011;5719;42.714;23.732;2023-05-16T12:28:08;18.23;;;6.20;;
11328;SDS011;5719;42.714;23.732;2023-05-16T12:30:38;12.13;;;6.05;;
11328;SDS011;5719;42.714;23.732;2023-05-16T12:33:07;21.25;;;6.07;;
11328;SDS011;5719;42.714;23.732;2023-05-16T12:35:39;13.95;;;6.18;;
11328;SDS011;5719;42.714;23.732;2023-05-16T12:38:07;12.82;;;5.50;;
11328;SDS011;5719;42.714;23.732;2023-05-16T12:40:36;18.50;;;7.03;;
11328;SDS011;5719;42.714;23.732;2023-05-16T12:43:03;15.52;;;5.90;;
11328;SDS011;5719;42.714;23.732;2023-05-16T12:45:32;18.92;;;5.70;;
11328;SDS011;5719;42.714;23.732;2023-05-16T12:48:03;16.35;;;5.93;;
11328;SDS011;5719;42.714;23.732;2023-05-16T12:50:31;21.23;;;6.25;;
11328;SDS011;5719;42.714;23.732;2023-05-16T12:53:00;17.73;;;6.93;;
11328;SDS011;5719;42.714;23.732;2023-05-16T12:55:27;18.73;;;6.03;;
11328;SDS011;5719;42.714;23.732;2023-05-16T12:57:54;14.80;;;6.45;;
11328;SDS011;5719;42.714;23.732;2023-05-16T13:00:22;20.92;;;6.28;;
11328;SDS011;5719;42.714;23.732;2023-05-16T13:02:49;15.10;;;6.13;;
11328;SDS011;5719;42.714;23.732;2023-05-16T13:05:16;20.60;;;6.07;;
11328;SDS011;5719;42.714;23.732;2023-05-16T13:07:44;17.40;;;6.60;;
11328;SDS011;5719;42.714;23.732;2023-05-16T13:10:13;15.98;;;6.57;;
11328;SDS011;5719;42.714;23.732;2023-05-16T13:12:40;13.48;;;6.28;;
11328;SDS011;5719;42.714;23.732;2023-05-16T13:15:10;22.33;;;6.95;;
11328;SDS011;5719;42.714;23.732;2023-05-16T13:17:37;14.00;;;6.82;;
11328;SDS011;5719;42.714;23.732;2023-05-16T13:20:06;17.55;;;7.07;;
11328;SDS011;5719;42.714;23.732;2023-05-16T13:22:37;12.68;;;6.63;;
11328;SDS011;5719;42.714;23.732;2023-05-16T13:25:05;15.38;;;6.85;;
11328;SDS011;5719;42.714;23.732;2023-05-16T13:27:34;15.88;;;6.28;;
11328;SDS011;5719;42.714;23.732;2023-05-16T13:30:01;12.80;;;7.20;;
11328;SDS011;5719;42.714;23.732;2023-05-16T13:32:28;14.75;;;6.88;;
11328;SDS011;5719;42.714;23.732;2023-05-16T13:34:55;10.48;;;6.57;;
11328;SDS011;5719;42.714;23.732;2023-05-16T13:37:22;14.57;;;6.75;;
11328;SDS011;5719;42.714;23.732;2023-05-16T13:39:52;15.85;;;6.55;;
11328;SDS011;5719;42.714;23.732;2023-05-16T13:42:20;14.32;;;6.22;;
11328;SDS011;5719;42.714;23.732;2023-05-16T13:44:48;16.45;;;6.32;;
11328;SDS011;5719;42.714;23.732;2023-05-16T13:47:15;11.70;;;6.63;;
11328;SDS011;5719;42.714;23.732;2023-05-16T13:49:42;13.15;;;6.10;;
11328;SDS011;5719;42.714;23.732;2023-05-16T13:52:10;15.52;;;6.13;;
11328;SDS011;5719;42.714;23.732;2023-05-16T13:54:37;19.13;;;7.13;;
11328;SDS011;5719;42.714;23.732;2023-05-16T13:57:05;15.75;;;6.53;;
11328;SDS011;5719;42.714;23.732;2023-05-16T13:59:32;13.13;;;6.70;;
11328;SDS011;5719;42.714;23.732;2023-05-16T14:02:01;16.60;;;6.88;;
11328;SDS011;5719;42.714;23.732;2023-05-16T14:04:28;14.68;;;7.15;;
11328;SDS011;5719;42.714;23.732;2023-05-16T14:06:55;37.65;;;7.40;;
11328;SDS011;5719;42.714;23.732;2023-05-16T14:09:22;34.70;;;6.90;;
11328;SDS011;5719;42.714;23.732;2023-05-16T14:11:49;14.13;;;6.35;;
11328;SDS011;5719;42.714;23.732;2023-05-16T14:14:16;14.02;;;6.55;;
11328;SDS011;5719;42.714;23.732;2023-05-16T14:16:43;16.42;;;7.28;;
11328;SDS011;5719;42.714;23.732;2023-05-16T14:19:12;17.40;;;7.30;;
11328;SDS011;5719;42.714;23.732;2023-05-16T14:21:39;16.42;;;6.85;;
11328;SDS011;5719;42.714;23.732;2023-05-16T14:24:06;16.08;;;6.65;;
11328;SDS011;5719;42.714;23.732;2023-05-16T14:26:34;14.95;;;7.00;;
11328;SDS011;5719;42.714;23.732;2023-05-16T14:29:01;15.60;;;7.15;;
11328;SDS011;5719;42.714;23.732;2023-05-16T14:31:28;15.13;;;6.53;;
11328;SDS011;5719;42.714;23.732;2023-05-16T14:33:55;17.75;;;6.45;;
11328;SDS011;5719;42.714;23.732;2023-05-16T14:36:26;13.57;;;6.60;;
11328;SDS011;5719;42.714;23.732;2023-05-16T14:38:54;19.02;;;7.70;;
11328;SDS011;5719;42.714;23.732;2023-05-16T14:41:21;14.75;;;6.60;;